UAL2046 KEWR-KEWR
Flight info
| Callsign | UAL2046 |
|---|---|
| Flight time | N/A |
| Altitude | 21000 |
| Route | MERIT ROBUC3 |
| Aircraft | A320/M-VGDW/C |
Departure
| Time | 2026-04-23 01:26 |
|---|---|
| Airport | Newark Liberty International Airport (KEWR) |
Arrival
| Time | N/A |
|---|---|
| Airport | Newark Liberty International Airport (KEWR) |
| Time | Latitude | Longitude | Altitude | Speed | Heading |
|---|---|---|---|---|---|
| 2026-04-23 01:04 | 40.69384 | -74.17159 | 26 ft | 0 kts | 283° |
| 2026-04-23 01:10 | 40.69382 | -74.17146 | 16 ft | 2 kts | 283° |
| 2026-04-23 01:10 | 40.69379 | -74.17125 | 17 ft | 2 kts | 296° |
| 2026-04-23 01:10 | 40.69368 | -74.17111 | 20 ft | 1 kts | 352° |
| 2026-04-23 01:19 | 40.69370 | -74.17110 | 17 ft | 0 kts | 5° |
| 2026-04-23 01:20 | 40.69370 | -74.17109 | 17 ft | 1 kts | 13° |
| 2026-04-23 01:20 | 40.69396 | -74.17089 | 18 ft | 7 kts | 31° |
| 2026-04-23 01:20 | 40.69425 | -74.17039 | 19 ft | 7 kts | 53° |
| 2026-04-23 01:20 | 40.69462 | -74.17002 | 20 ft | 7 kts | 31° |
| 2026-04-23 01:21 | 40.69515 | -74.16968 | 20 ft | 10 kts | 26° |
| 2026-04-23 01:21 | 40.69589 | -74.16921 | 19 ft | 14 kts | 26° |
| 2026-04-23 01:21 | 40.69683 | -74.16861 | 20 ft | 16 kts | 26° |
| 2026-04-23 01:21 | 40.69791 | -74.16793 | 18 ft | 19 kts | 23° |
| 2026-04-23 01:22 | 40.69928 | -74.16763 | 17 ft | 15 kts | 2° |
| 2026-04-23 01:22 | 40.70013 | -74.16752 | 18 ft | 12 kts | 6° |
| 2026-04-23 01:22 | 40.70071 | -74.16693 | 16 ft | 12 kts | 65° |
| 2026-04-23 01:22 | 40.70074 | -74.16586 | 16 ft | 10 kts | 95° |
| 2026-04-23 01:23 | 40.70068 | -74.16505 | 17 ft | 6 kts | 95° |
| 2026-04-23 01:23 | 40.70068 | -74.16494 | 15 ft | 0 kts | 95° |
| 2026-04-23 01:24 | 40.70067 | -74.16485 | 15 ft | 5 kts | 95° |
| 2026-04-23 01:25 | 40.70058 | -74.16443 | 17 ft | 9 kts | 118° |
| 2026-04-23 01:25 | 40.69999 | -74.16393 | 14 ft | 12 kts | 179° |
| 2026-04-23 01:25 | 40.69953 | -74.16413 | 14 ft | 0 kts | 204° |
| 2026-04-23 01:25 | 40.69866 | -74.16469 | 16 ft | 44 kts | 205° |
| 2026-04-23 01:26 | 40.69320 | -74.16810 | 23 ft | 126 kts | 206° |
| 2026-04-23 01:26 | 40.68338 | -74.17417 | 167 ft | 174 kts | 204° |
| 2026-04-23 01:26 | 40.67594 | -74.17908 | 659 ft | 180 kts | 205° |
| 2026-04-23 01:26 | 40.66411 | -74.18356 | 1647 ft | 178 kts | 185° |
| 2026-04-23 01:27 | 40.64634 | -74.18344 | 2392 ft | 216 kts | 185° |
| 2026-04-23 01:27 | 40.63581 | -74.18653 | 2500 ft | 244 kts | 208° |
| 2026-04-23 01:27 | 40.62157 | -74.19895 | 3582 ft | 239 kts | 220° |
| 2026-04-23 01:27 | 40.60843 | -74.21171 | 4943 ft | 237 kts | 221° |
| 2026-04-23 01:28 | 40.59555 | -74.22669 | 5570 ft | 260 kts | 238° |
| 2026-04-23 01:28 | 40.58816 | -74.24937 | 5866 ft | 285 kts | 264° |
| 2026-04-23 01:28 | 40.58919 | -74.27557 | 5990 ft | 282 kts | 288° |
| 2026-04-23 01:28 | 40.59843 | -74.29696 | 6012 ft | 263 kts | 314° |
| 2026-04-23 01:29 | 40.61349 | -74.30905 | 6015 ft | 255 kts | 341° |
| 2026-04-23 01:29 | 40.63129 | -74.30965 | 6019 ft | 263 kts | 9° |
| 2026-04-23 01:29 | 40.64888 | -74.29914 | 6023 ft | 297 kts | 26° |
| 2026-04-23 01:29 | 40.66621 | -74.28514 | 6014 ft | 284 kts | 27° |
| 2026-04-23 01:30 | 40.68241 | -74.27122 | 6014 ft | 275 kts | 32° |
| 2026-04-23 01:30 | 40.69474 | -74.25164 | 6051 ft | 286 kts | 62° |
| 2026-04-23 01:30 | 40.69994 | -74.22592 | 6792 ft | 294 kts | 76° |
| 2026-04-23 01:30 | 40.70326 | -74.19952 | 7616 ft | 298 kts | 77° |
| 2026-04-23 01:31 | 40.70643 | -74.17239 | 8433 ft | 302 kts | 77° |
| 2026-04-23 01:31 | 40.70960 | -74.14489 | 9233 ft | 305 kts | 76° |
| 2026-04-23 01:31 | 40.71618 | -74.11860 | 9979 ft | 301 kts | 54° |
| 2026-04-23 01:31 | 40.72891 | -74.09658 | 10429 ft | 310 kts | 43° |
| 2026-04-23 01:32 | 40.74388 | -74.07469 | 10625 ft | 332 kts | 42° |
| 2026-04-23 01:32 | 40.76013 | -74.05156 | 10781 ft | 354 kts | 41° |
| 2026-04-23 01:32 | 40.77718 | -74.02734 | 11275 ft | 364 kts | 42° |
| 2026-04-23 01:32 | 40.79443 | -74.00261 | 11906 ft | 368 kts | 42° |
| 2026-04-23 01:33 | 40.81177 | -73.97754 | 12554 ft | 372 kts | 42° |
| 2026-04-23 01:33 | 40.82923 | -73.95220 | 13214 ft | 375 kts | 42° |
| 2026-04-23 01:33 | 40.84685 | -73.92654 | 13890 ft | 379 kts | 42° |
| 2026-04-23 01:33 | 40.86465 | -73.90055 | 14491 ft | 382 kts | 42° |
| 2026-04-23 01:34 | 40.88253 | -73.87442 | 15068 ft | 385 kts | 41° |
| 2026-04-23 01:34 | 40.90055 | -73.84806 | 15647 ft | 388 kts | 41° |
| 2026-04-23 01:34 | 40.91874 | -73.82147 | 16223 ft | 391 kts | 41° |
| 2026-04-23 01:34 | 40.93704 | -73.79472 | 16823 ft | 394 kts | 41° |
| 2026-04-23 01:35 | 40.95551 | -73.76778 | 17418 ft | 396 kts | 41° |
| 2026-04-23 01:35 | 40.97411 | -73.74067 | 17988 ft | 400 kts | 40° |
| 2026-04-23 01:35 | 40.99284 | -73.71332 | 18567 ft | 403 kts | 40° |
| 2026-04-23 01:35 | 41.01174 | -73.68569 | 19116 ft | 406 kts | 40° |
| 2026-04-23 01:36 | 41.03070 | -73.65787 | 19677 ft | 409 kts | 40° |
| 2026-04-23 01:36 | 41.04977 | -73.62978 | 20220 ft | 412 kts | 40° |
| 2026-04-23 01:36 | 41.06898 | -73.60145 | 20730 ft | 415 kts | 40° |
| 2026-04-23 01:36 | 41.08829 | -73.57296 | 20998 ft | 416 kts | 40° |
| 2026-04-23 01:37 | 41.10782 | -73.54423 | 21073 ft | 425 kts | 40° |
| 2026-04-23 01:37 | 41.12801 | -73.51467 | 21074 ft | 439 kts | 41° |
| 2026-04-23 01:37 | 41.14870 | -73.48430 | 21073 ft | 447 kts | 41° |
| 2026-04-23 01:37 | 41.16956 | -73.45350 | 21085 ft | 450 kts | 41° |
| 2026-04-23 01:38 | 41.19047 | -73.42249 | 21087 ft | 450 kts | 41° |
| 2026-04-23 01:38 | 41.21136 | -73.39145 | 21089 ft | 451 kts | 41° |
| 2026-04-23 01:38 | 41.23225 | -73.36037 | 21087 ft | 451 kts | 41° |
| 2026-04-23 01:38 | 41.25312 | -73.32932 | 21088 ft | 451 kts | 41° |
| 2026-04-23 01:39 | 41.27400 | -73.29828 | 21104 ft | 451 kts | 41° |
| 2026-04-23 01:39 | 41.29494 | -73.26719 | 21077 ft | 451 kts | 41° |
| 2026-04-23 01:39 | 41.31588 | -73.23610 | 21087 ft | 451 kts | 41° |
| 2026-04-23 01:39 | 41.33670 | -73.20507 | 21086 ft | 442 kts | 41° |
| 2026-04-23 01:40 | 41.35624 | -73.17479 | 21089 ft | 426 kts | 45° |
| 2026-04-23 01:40 | 41.37232 | -73.14098 | 21105 ft | 450 kts | 56° |
| 2026-04-23 01:40 | 41.38423 | -73.10132 | 21084 ft | 472 kts | 67° |
| 2026-04-23 01:40 | 41.39082 | -73.05787 | 21085 ft | 484 kts | 76° |
| 2026-04-23 01:41 | 41.39536 | -73.01344 | 21087 ft | 485 kts | 76° |
| 2026-04-23 01:41 | 41.40000 | -72.96893 | 21091 ft | 485 kts | 76° |
| 2026-04-23 01:41 | 41.40473 | -72.92467 | 21094 ft | 478 kts | 76° |
| 2026-04-23 01:41 | 41.40943 | -72.88115 | 21089 ft | 473 kts | 76° |
| 2026-04-23 01:42 | 41.41412 | -72.83773 | 21088 ft | 472 kts | 76° |
| 2026-04-23 01:42 | 41.41879 | -72.79448 | 21088 ft | 472 kts | 76° |
| 2026-04-23 01:42 | 41.42344 | -72.75114 | 21094 ft | 472 kts | 76° |
| 2026-04-23 01:42 | 41.42807 | -72.70787 | 21095 ft | 472 kts | 76° |
| 2026-04-23 01:43 | 41.43266 | -72.66462 | 21099 ft | 472 kts | 76° |
| 2026-04-23 01:43 | 41.43721 | -72.62126 | 21099 ft | 472 kts | 76° |
| 2026-04-23 01:43 | 41.44167 | -72.57793 | 21104 ft | 473 kts | 77° |
| 2026-04-23 01:43 | 41.44612 | -72.53435 | 21100 ft | 474 kts | 77° |
| 2026-04-23 01:44 | 41.45061 | -72.49083 | 21101 ft | 474 kts | 77° |
| 2026-04-23 01:44 | 41.45513 | -72.44735 | 21101 ft | 474 kts | 76° |
| 2026-04-23 01:44 | 41.45963 | -72.40387 | 21099 ft | 474 kts | 77° |
| 2026-04-23 01:44 | 41.46411 | -72.36027 | 21099 ft | 474 kts | 77° |
| 2026-04-23 01:45 | 41.46855 | -72.31670 | 21093 ft | 474 kts | 77° |
| 2026-04-23 01:45 | 41.47296 | -72.27320 | 21096 ft | 474 kts | 77° |
| 2026-04-23 01:45 | 41.47810 | -72.22990 | 21098 ft | 471 kts | 71° |
| 2026-04-23 01:45 | 41.48762 | -72.18841 | 21018 ft | 464 kts | 62° |
| 2026-04-23 01:46 | 41.50112 | -72.14970 | 20767 ft | 458 kts | 57° |
| 2026-04-23 01:46 | 41.51514 | -72.11163 | 20519 ft | 456 kts | 57° |
| 2026-04-23 01:46 | 41.52908 | -72.07366 | 20269 ft | 455 kts | 57° |
| 2026-04-23 01:46 | 41.54275 | -72.03618 | 20023 ft | 454 kts | 57° |
| 2026-04-23 01:47 | 41.55650 | -71.99837 | 19775 ft | 453 kts | 58° |
| 2026-04-23 01:47 | 41.56947 | -71.96001 | 19532 ft | 453 kts | 60° |
| 2026-04-23 01:47 | 41.58145 | -71.92112 | 19309 ft | 453 kts | 62° |
| 2026-04-23 01:47 | 41.59282 | -71.88187 | 19072 ft | 453 kts | 63° |
| 2026-04-23 01:48 | 41.60398 | -71.84250 | 18838 ft | 452 kts | 63° |
| 2026-04-23 01:48 | 41.61505 | -71.80339 | 18602 ft | 450 kts | 63° |
| 2026-04-23 01:48 | 41.62608 | -71.76471 | 18355 ft | 438 kts | 63° |
| 2026-04-23 01:48 | 41.63689 | -71.72722 | 18077 ft | 427 kts | 63° |
| 2026-04-23 01:49 | 41.64753 | -71.69076 | 17842 ft | 416 kts | 62° |
| 2026-04-23 01:49 | 41.65798 | -71.65528 | 17568 ft | 405 kts | 62° |
| 2026-04-23 01:49 | 41.66819 | -71.62077 | 17305 ft | 394 kts | 62° |
| 2026-04-23 01:49 | 41.67816 | -71.58700 | 17044 ft | 384 kts | 62° |
| 2026-04-23 01:50 | 41.68787 | -71.55405 | 16802 ft | 375 kts | 62° |
| 2026-04-23 01:50 | 41.69731 | -71.52193 | 16535 ft | 367 kts | 62° |
| 2026-04-23 01:50 | 41.70653 | -71.49045 | 16275 ft | 360 kts | 62° |
| 2026-04-23 01:50 | 41.71557 | -71.45951 | 16037 ft | 355 kts | 62° |
| 2026-04-23 01:51 | 41.72494 | -71.42918 | 15780 ft | 349 kts | 57° |
| 2026-04-23 01:51 | 41.73668 | -71.40107 | 15532 ft | 345 kts | 53° |
| 2026-04-23 01:51 | 41.74863 | -71.37326 | 15281 ft | 343 kts | 53° |
| 2026-04-23 01:51 | 41.76050 | -71.34562 | 15033 ft | 342 kts | 53° |
| 2026-04-23 01:52 | 41.77232 | -71.31803 | 14789 ft | 341 kts | 54° |
| 2026-04-23 01:52 | 41.78410 | -71.29057 | 14542 ft | 339 kts | 54° |
| 2026-04-23 01:52 | 41.79582 | -71.26321 | 14167 ft | 339 kts | 54° |
| 2026-04-23 01:52 | 41.80752 | -71.23583 | 13749 ft | 338 kts | 54° |
| 2026-04-23 01:53 | 41.81897 | -71.20890 | 13589 ft | 328 kts | 54° |
| 2026-04-23 01:53 | 41.83019 | -71.18242 | 13243 ft | 325 kts | 54° |
| 2026-04-23 01:53 | 41.84134 | -71.15609 | 12889 ft | 323 kts | 54° |
| 2026-04-23 01:53 | 41.85244 | -71.12996 | 12537 ft | 321 kts | 54° |
| 2026-04-23 01:54 | 41.86349 | -71.10405 | 12201 ft | 319 kts | 54° |
| 2026-04-23 01:54 | 41.87457 | -71.07839 | 11861 ft | 316 kts | 54° |
| 2026-04-23 01:54 | 41.88553 | -71.05312 | 11609 ft | 311 kts | 54° |
| 2026-04-23 01:54 | 41.89621 | -71.02845 | 11480 ft | 309 kts | 54° |
| 2026-04-23 01:55 | 41.90697 | -71.00356 | 11336 ft | 308 kts | 54° |
| 2026-04-23 01:55 | 41.91772 | -70.97870 | 11203 ft | 307 kts | 54° |
| 2026-04-23 01:55 | 41.92843 | -70.95394 | 11065 ft | 307 kts | 54° |
| 2026-04-23 01:55 | 41.93912 | -70.92921 | 10930 ft | 306 kts | 55° |
| 2026-04-23 01:56 | 41.94975 | -70.90450 | 10791 ft | 305 kts | 55° |
| 2026-04-23 01:56 | 41.96034 | -70.87984 | 10646 ft | 304 kts | 55° |
| 2026-04-23 01:56 | 41.97088 | -70.85528 | 10510 ft | 302 kts | 56° |
| 2026-04-23 01:56 | 41.98134 | -70.83086 | 10375 ft | 301 kts | 56° |
| 2026-04-23 01:57 | 41.99176 | -70.80646 | 10237 ft | 300 kts | 56° |
| 2026-04-23 01:57 | 42.00214 | -70.78215 | 10107 ft | 299 kts | 56° |
| 2026-04-23 01:57 | 42.01337 | -70.75879 | 9953 ft | 296 kts | 47° |
| 2026-04-23 01:57 | 42.02701 | -70.73813 | 9645 ft | 293 kts | 44° |
| 2026-04-23 01:58 | 42.04063 | -70.71791 | 9361 ft | 291 kts | 44° |
| 2026-04-23 01:58 | 42.05411 | -70.69773 | 9087 ft | 290 kts | 44° |
| 2026-04-23 01:58 | 42.06753 | -70.67755 | 8812 ft | 288 kts | 44° |
| 2026-04-23 01:58 | 42.08085 | -70.65752 | 8543 ft | 287 kts | 44° |
| 2026-04-23 01:59 | 42.09420 | -70.63772 | 8271 ft | 284 kts | 40° |
| 2026-04-23 01:59 | 42.10957 | -70.62161 | 8003 ft | 277 kts | 26° |
| 2026-04-23 01:59 | 42.12701 | -70.61135 | 7743 ft | 271 kts | 12° |
| 2026-04-23 01:59 | 42.14532 | -70.60594 | 7489 ft | 269 kts | 7° |
| 2026-04-23 02:00 | 42.16360 | -70.60091 | 7238 ft | 267 kts | 7° |
| 2026-04-23 02:00 | 42.18178 | -70.59583 | 6977 ft | 266 kts | 8° |
| 2026-04-23 02:00 | 42.19986 | -70.59074 | 6714 ft | 265 kts | 8° |
| 2026-04-23 02:00 | 42.21788 | -70.58570 | 6460 ft | 264 kts | 8° |
| 2026-04-23 02:01 | 42.23580 | -70.58066 | 6204 ft | 263 kts | 8° |
| 2026-04-23 02:01 | 42.25370 | -70.57565 | 5945 ft | 263 kts | 8° |
| 2026-04-23 02:01 | 42.27134 | -70.57071 | 5697 ft | 262 kts | 8° |
| 2026-04-23 02:01 | 42.28919 | -70.56569 | 5450 ft | 262 kts | 8° |
| 2026-04-23 02:02 | 42.30712 | -70.56236 | 5205 ft | 258 kts | 356° |
| 2026-04-23 02:02 | 42.32465 | -70.56598 | 5041 ft | 255 kts | 340° |
| 2026-04-23 02:02 | 42.34051 | -70.57632 | 4979 ft | 253 kts | 323° |
| 2026-04-23 02:02 | 42.35372 | -70.59198 | 4982 ft | 253 kts | 314° |
| 2026-04-23 02:03 | 42.36631 | -70.60860 | 4981 ft | 254 kts | 315° |
| 2026-04-23 02:03 | 42.37898 | -70.62522 | 4978 ft | 254 kts | 315° |
| 2026-04-23 02:03 | 42.39168 | -70.64185 | 4982 ft | 254 kts | 315° |
| 2026-04-23 02:03 | 42.40434 | -70.65846 | 4979 ft | 254 kts | 315° |
| 2026-04-23 02:04 | 42.41706 | -70.67511 | 4976 ft | 254 kts | 315° |
| 2026-04-23 02:04 | 42.42973 | -70.69178 | 4982 ft | 254 kts | 315° |
| 2026-04-23 02:04 | 42.44240 | -70.70848 | 4979 ft | 254 kts | 315° |
| 2026-04-23 02:04 | 42.45499 | -70.72507 | 4777 ft | 252 kts | 315° |
| 2026-04-23 02:05 | 42.46748 | -70.74149 | 4559 ft | 246 kts | 314° |
| 2026-04-23 02:05 | 42.47953 | -70.75734 | 4425 ft | 237 kts | 314° |
| 2026-04-23 02:05 | 42.49113 | -70.77263 | 4294 ft | 228 kts | 314° |
| 2026-04-23 02:05 | 42.50227 | -70.78733 | 4156 ft | 219 kts | 313° |
| 2026-04-23 02:06 | 42.51306 | -70.80131 | 4007 ft | 211 kts | 318° |
| 2026-04-23 02:06 | 42.52597 | -70.81070 | 3714 ft | 214 kts | 340° |
| 2026-04-23 02:06 | 42.54097 | -70.81248 | 3368 ft | 222 kts | 4° |
| 2026-04-23 02:06 | 42.55102 | -70.80901 | 3133 ft | 226 kts | 17° |
| 2026-04-23 02:07 | 42.56576 | -70.80167 | 2975 ft | 227 kts | 17° |
| 2026-04-23 02:07 | 42.58100 | -70.79678 | 2980 ft | 223 kts | 352° |
| 2026-04-23 02:07 | 42.59518 | -70.80293 | 2985 ft | 210 kts | 317° |
| 2026-04-23 02:07 | 42.60451 | -70.81751 | 2984 ft | 204 kts | 298° |
| 2026-04-23 02:08 | 42.61036 | -70.83480 | 2978 ft | 201 kts | 286° |
| 2026-04-23 02:08 | 42.61469 | -70.85283 | 2983 ft | 201 kts | 283° |
| 2026-04-23 02:08 | 42.61516 | -70.87121 | 2981 ft | 196 kts | 250° |
| 2026-04-23 02:08 | 42.60739 | -70.88611 | 2988 ft | 200 kts | 216° |
| 2026-04-23 02:09 | 42.59449 | -70.89382 | 2981 ft | 204 kts | 202° |
| 2026-04-23 02:09 | 42.58121 | -70.90008 | 2983 ft | 196 kts | 202° |
| 2026-04-23 02:09 | 42.56863 | -70.90612 | 2978 ft | 189 kts | 202° |
| 2026-04-23 02:09 | 42.55635 | -70.91210 | 2980 ft | 186 kts | 202° |
| 2026-04-23 02:10 | 42.54418 | -70.91803 | 2981 ft | 186 kts | 202° |
| 2026-04-23 02:10 | 42.53198 | -70.92397 | 2984 ft | 186 kts | 203° |
| 2026-04-23 02:10 | 42.51982 | -70.92989 | 2983 ft | 185 kts | 202° |
| 2026-04-23 02:10 | 42.50788 | -70.93569 | 2906 ft | 177 kts | 203° |
| 2026-04-23 02:11 | 42.49645 | -70.94124 | 2683 ft | 172 kts | 203° |
| 2026-04-23 02:11 | 42.48531 | -70.94666 | 2445 ft | 166 kts | 203° |
| 2026-04-23 02:11 | 42.47478 | -70.95178 | 2234 ft | 156 kts | 203° |
| 2026-04-23 02:11 | 42.46501 | -70.95652 | 2034 ft | 142 kts | 202° |
| 2026-04-23 02:12 | 42.45604 | -70.96088 | 1853 ft | 134 kts | 202° |
| 2026-04-23 02:12 | 42.44731 | -70.96512 | 1664 ft | 132 kts | 201° |
| 2026-04-23 02:12 | 42.43863 | -70.96919 | 1481 ft | 131 kts | 199° |
| 2026-04-23 02:12 | 42.42996 | -70.97290 | 1278 ft | 131 kts | 202° |
| 2026-04-23 02:13 | 42.42149 | -70.97743 | 1089 ft | 131 kts | 201° |
| 2026-04-23 02:13 | 42.41294 | -70.98168 | 930 ft | 131 kts | 200° |
| 2026-04-23 02:13 | 42.40439 | -70.98595 | 710 ft | 131 kts | 200° |
| 2026-04-23 02:13 | 42.39576 | -70.99005 | 482 ft | 132 kts | 199° |
| 2026-04-23 02:14 | 42.38719 | -70.99431 | 349 ft | 131 kts | 198° |
| 2026-04-23 02:14 | 42.37863 | -70.99847 | 150 ft | 130 kts | 199° |
| 2026-04-23 02:14 | 42.37030 | -71.00246 | 29 ft | 116 kts | 199° |
| 2026-04-23 02:14 | 42.36443 | -71.00528 | 29 ft | 61 kts | 199° |
| 2026-04-23 02:15 | 42.36034 | -71.00758 | 22 ft | 28 kts | 226° |
| 2026-04-23 02:15 | 42.35899 | -71.00944 | 20 ft | 28 kts | 228° |
| 2026-04-23 02:15 | 42.35837 | -71.01169 | 24 ft | 26 kts | 279° |
| 2026-04-23 02:16 | 42.35862 | -71.01405 | 28 ft | 25 kts | 281° |
| 2026-04-23 02:16 | 42.35967 | -71.01533 | 28 ft | 14 kts | 346° |
| 2026-04-23 02:16 | 42.36027 | -71.01634 | 28 ft | 15 kts | 291° |
| 2026-04-23 02:16 | 42.36047 | -71.01711 | 27 ft | 0 kts | 291° |